Time;durP1;ratioP1;P1;durP2;ratioP2;P2;SDS_P1;SDS_P2;PMS_P1;PMS_P2;Temp;Humidity;BMP_temperature;BMP_pressure;BME280_temperature;BME280_humidity;BME280_pressure;Samples;Min_cycle;Max_cycle;Signal;HPM_P1;HPM_P2
2022/01/28 00:03:00;;;;;;;12.5;16.1;;;;;;;3.2;77.6;98330;;;;
2022/01/28 00:12:55;;;;;;;12.5;16.1;;;;;;;3.3;76.9;98340;;;;
2022/01/28 00:43:39;;;;;;;9.1;13.4;;;;;;;3.2;77.2;98300;;;;
2022/01/28 00:53:39;;;;;;;9.1;12.2;;;;;;;3.2;76.8;98290;;;;
2022/01/28 01:04:40;;;;;;;9.1;12.2;;;;;;;3.3;76.3;98300;;;;
2022/01/28 01:14:39;;;;;;;9.1;12.2;;;;;;;3.4;75.7;98300;;;;
2022/01/28 01:24:49;;;;;;;7.8;10.1;;;;;;;3.5;75.1;98280;;;;
2022/01/28 01:35:39;;;;;;;7.8;10.1;;;;;;;3.5;74.8;98270;;;;
2022/01/28 01:45:57;;;;;;;7.2;13.3;;;;;;;3.5;75.8;98300;;;;
2022/01/28 01:55:39;;;;;;;7.2;13.3;;;;;;;3.1;78.5;98270;;;;
2022/01/28 02:05:39;;;;;;;7.2;13.3;;;;;;;3;77.6;98260;;;;
2022/01/28 02:16:39;;;;;;;5.8;8.3;;;;;;;2.8;77.1;98240;;;;
2022/01/28 02:26:40;;;;;;;5.8;8.3;;;;;;;2.8;76.4;98230;;;;
2022/01/28 02:36:39;;;;;;;5.8;8.3;;;;;;;3;74.7;98220;;;;
2022/01/28 02:47:39;;;;;;;4.9;7.5;;;;;;;3.2;73.2;98220;;;;
2022/01/28 02:58:39;;;;;;;4.9;7.5;;;;;;;3.4;72.6;98240;;;;
2022/01/28 03:08:42;;;;;;;4.9;7.5;;;;;;;3.2;72.8;98230;;;;
2022/01/28 03:19:45;;;;;;;4;5.9;;;;;;;3.3;73.2;98260;;;;
2022/01/28 03:30:39;;;;;;;4;5.9;;;;;;;3.2;73.5;98240;;;;
2022/01/28 03:40:40;;;;;;;4;5.9;;;;;;;3.4;71.4;98240;;;;
2022/01/28 03:51:39;;;;;;;3.8;5.8;;;;;;;3.5;71.7;98250;;;;
2022/01/28 04:02:42;;;;;;;3.8;5.8;;;;;;;3.5;71.9;98270;;;;
2022/01/28 04:13:46;;;;;;;3.8;5.8;;;;;;;3.4;71.3;98270;;;;
2022/01/28 04:23:39;;;;;;;2.9;9.1;;;;;;;3.4;71;98270;;;;
2022/01/28 04:34:39;;;;;;;2.9;9.1;;;;;;;3.5;70.6;98260;;;;
2022/01/28 04:45:46;;;;;;;3.1;6.7;;;;;;;3.5;70.5;98260;;;;
2022/01/28 04:55:52;;;;;;;3.1;6.7;;;;;;;3.5;70.6;98260;;;;
2022/01/28 05:07:09;;;;;;;3.1;6.7;;;;;;;3.4;72.6;98260;;;;
2022/01/28 05:17:01;;;;;;;2.9;6.9;;;;;;;3.1;75;98280;;;;
2022/01/28 05:27:43;;;;;;;2.9;6.9;;;;;;;2.7;77.2;98280;;;;
2022/01/28 05:38:39;;;;;;;2.9;6.9;;;;;;;2.5;79.1;98290;;;;
2022/01/28 05:48:39;;;;;;;3.8;7.1;;;;;;;2.3;80.7;98300;;;;
2022/01/28 05:58:39;;;;;;;3.8;7.1;;;;;;;2.1;81.6;98310;;;;
2022/01/28 06:08:39;;;;;;;3.8;7.1;;;;;;;2;82.6;98300;;;;
2022/01/28 06:18:39;;;;;;;5.8;9.5;;;;;;;2;82.9;98310;;;;
2022/01/28 06:28:39;;;;;;;5.8;9.5;;;;;;;1.8;83.3;98340;;;;
2022/01/28 06:39:39;;;;;;;5.8;9.5;;;;;;;1.7;83.7;98340;;;;
2022/01/28 06:49:39;;;;;;;7.1;12.3;;;;;;;1.7;84;98350;;;;
2022/01/28 06:59:40;;;;;;;7.1;12.3;;;;;;;1.7;84.1;98360;;;;
2022/01/28 07:09:39;;;;;;;7.1;12.3;;;;;;;1.7;84.2;98380;;;;
2022/01/28 07:20:39;;;;;;;7.3;10;;;;;;;1.8;84.2;98380;;;;
2022/01/28 07:31:39;;;;;;;7.3;10;;;;;;;2;83.5;98390;;;;
2022/01/28 07:41:39;;;;;;;7.3;10;;;;;;;2.3;82.6;98410;;;;
2022/01/28 07:52:39;;;;;;;7.8;10.8;;;;;;;2.5;81.1;98390;;;;
2022/01/28 08:02:40;;;;;;;7.8;10.8;;;;;;;2.7;79.5;98400;;;;
2022/01/28 08:13:39;;;;;;;7.8;10.8;;;;;;;2.9;78.1;98410;;;;
2022/01/28 08:24:39;;;;;;;5.4;9.7;;;;;;;3;76.8;98410;;;;
2022/01/28 08:35:40;;;;;;;6.3;12.5;;;;;;;3.2;75.1;98440;;;;
2022/01/28 08:45:39;;;;;;;6.3;12.5;;;;;;;3.2;75.5;98450;;;;
2022/01/28 09:34:08;;;;;;;7.7;10.8;;;;;;;2.4;81.4;98530;;;;
2022/01/28 09:44:10;;;;;;;7.7;10.8;;;;;;;2.5;81.6;98530;;;;
2022/01/28 09:54:08;;;;;;;8.1;12.2;;;;;;;2.5;81.8;98540;;;;
2022/01/28 10:04:09;;;;;;;8.1;12.2;;;;;;;2.4;82;98540;;;;
2022/01/28 10:15:17;;;;;;;8.1;12.2;;;;;;;2.3;82.4;98560;;;;
2022/01/28 10:26:08;;;;;;;11.2;18.5;;;;;;;2.2;82.9;98550;;;;
2022/01/28 10:37:08;;;;;;;11.2;18.5;;;;;;;1.9;83.5;98560;;;;
2022/01/28 10:47:08;;;;;;;11.2;18.5;;;;;;;1.9;83.9;98580;;;;
2022/01/28 10:57:08;;;;;;;10.9;16.7;;;;;;;1.9;84;98590;;;;
2022/01/28 11:08:08;;;;;;;10.9;16.7;;;;;;;1.9;84.3;98580;;;;
2022/01/28 11:18:09;;;;;;;10.9;16.7;;;;;;;2;84.4;98590;;;;
2022/01/28 11:29:08;;;;;;;12.7;16.4;;;;;;;2.1;84.4;98600;;;;
2022/01/28 11:40:08;;;;;;;12.7;16.4;;;;;;;2.1;84.6;98610;;;;
2022/01/28 11:50:08;;;;;;;12.7;16.4;;;;;;;2.2;84.4;98620;;;;
2022/01/28 12:01:08;;;;;;;11.3;14.4;;;;;;;2.2;84.5;98630;;;;
2022/01/28 12:11:10;;;;;;;11.3;14.4;;;;;;;2.1;84.5;98650;;;;
2022/01/28 12:22:08;;;;;;;11.3;14.4;;;;;;;2;84.8;98650;;;;
2022/01/28 12:33:08;;;;;;;12.4;15.6;;;;;;;2.1;84.7;98660;;;;
2022/01/28 12:44:08;;;;;;;12.4;15.6;;;;;;;2.2;84.8;98670;;;;
2022/01/28 12:54:08;;;;;;;15.7;19.7;;;;;;;2.3;84.9;98670;;;;
2022/01/28 13:05:13;;;;;;;15.7;19.7;;;;;;;2.2;85;98690;;;;
2022/01/28 13:16:08;;;;;;;15.7;19.7;;;;;;;2.2;85;98710;;;;
2022/01/28 13:27:08;;;;;;;17.2;23.3;;;;;;;2.3;85.2;98730;;;;
2022/01/28 13:37:08;;;;;;;17.2;23.3;;;;;;;2.3;85;98740;;;;
2022/01/28 13:47:09;;;;;;;17.2;23.3;;;;;;;2.4;84.8;98760;;;;
2022/01/28 13:58:08;;;;;;;13.7;16.9;;;;;;;2.4;84.7;98770;;;;
2022/01/28 14:08:08;;;;;;;13.7;16.9;;;;;;;2.5;84.4;98800;;;;
2022/01/28 14:18:08;;;;;;;13.7;16.9;;;;;;;2.7;83.2;98810;;;;
2022/01/28 14:28:24;;;;;;;11.3;14;;;;;;;2.7;83.1;98820;;;;
2022/01/28 14:39:08;;;;;;;11.3;14;;;;;;;2.8;82.8;98840;;;;
2022/01/28 14:50:08;;;;;;;11.3;14;;;;;;;2.8;83.2;98870;;;;
2022/01/28 15:01:08;;;;;;;14.1;22.2;;;;;;;2.8;83.4;98880;;;;
2022/01/28 15:11:13;;;;;;;14.1;22.2;;;;;;;2.7;83.4;98890;;;;
2022/01/28 15:21:08;;;;;;;14.1;22.2;;;;;;;2.8;82.8;98920;;;;
2022/01/28 15:42:08;;;;;;;13.7;17.5;;;;;;;2.8;81.8;98940;;;;
2022/01/28 15:52:08;;;;;;;13.7;17.5;;;;;;;2.8;81.2;98960;;;;
2022/01/28 16:02:08;;;;;;;13;18.7;;;;;;;2.8;81.2;99000;;;;
2022/01/28 16:13:29;;;;;;;13;18.7;;;;;;;2.6;81.7;99020;;;;
2022/01/28 16:23:08;;;;;;;14.5;18.4;;;;;;;2.6;82;99030;;;;
2022/01/28 16:34:11;;;;;;;14.5;18.4;;;;;;;2.7;81.9;99040;;;;
2022/01/28 16:45:08;;;;;;;14.5;18.4;;;;;;;2.7;82;99060;;;;
2022/01/28 16:55:16;;;;;;;14.8;22.8;;;;;;;2.7;82.5;99070;;;;
2022/01/28 17:05:08;;;;;;;14.8;22.8;;;;;;;2.6;82.3;99090;;;;
2022/01/28 17:16:08;;;;;;;14.8;22.8;;;;;;;2.6;81.7;99110;;;;
2022/01/28 17:26:08;;;;;;;16.7;22.6;;;;;;;2.5;81.2;99120;;;;
2022/01/28 17:36:08;;;;;;;16.7;22.6;;;;;;;2.4;81.4;99140;;;;
2022/01/28 17:47:08;;;;;;;16.7;22.6;;;;;;;2.4;81.3;99150;;;;
2022/01/28 17:57:08;;;;;;;16.4;21.4;;;;;;;2.5;81.1;99170;;;;
2022/01/28 18:07:09;;;;;;;16.4;21.4;;;;;;;2.5;81.4;99180;;;;
2022/01/28 18:17:08;;;;;;;16.4;21.4;;;;;;;2.4;81.7;99180;;;;
2022/01/28 18:27:10;;;;;;;18.8;23.9;;;;;;;2.4;81.8;99190;;;;
2022/01/28 18:38:08;;;;;;;18.8;23.9;;;;;;;2.4;81.2;99200;;;;
2022/01/28 18:48:08;;;;;;;18.8;23.9;;;;;;;2.2;80.1;99210;;;;
2022/01/28 18:59:09;;;;;;;16.2;22.6;;;;;;;2.1;78.7;99220;;;;
2022/01/28 19:10:10;;;;;;;16.2;22.6;;;;;;;2.2;80.5;99230;;;;
2022/01/28 19:20:08;;;;;;;16.2;22.6;;;;;;;2.2;81.3;99240;;;;
2022/01/28 19:30:08;;;;;;;23.2;26.5;;;;;;;2.1;81.6;99250;;;;
2022/01/28 19:41:08;;;;;;;23.2;26.5;;;;;;;1.5;81;99320;;;;
2022/01/28 19:51:09;;;;;;;23.2;26.5;;;;;;;1.4;81.9;99340;;;;
2022/01/28 20:02:08;;;;;;;14.2;17.8;;;;;;;1.2;80.1;99370;;;;
2022/01/28 20:12:11;;;;;;;14.2;17.8;;;;;;;1.2;80.2;99380;;;;
2022/01/28 20:23:08;;;;;;;4.8;7.2;;;;;;;1.1;79.5;99400;;;;
2022/01/28 20:33:08;;;;;;;4.8;7.2;;;;;;;1.1;79.6;99410;;;;
2022/01/28 20:44:08;;;;;;;4.8;7.2;;;;;;;1.1;77.4;99440;;;;
2022/01/28 20:55:09;;;;;;;9;13.4;;;;;;;0.9;76.4;99450;;;;
2022/01/28 21:06:08;;;;;;;9;13.4;;;;;;;1;77.2;99470;;;;
2022/01/28 21:17:08;;;;;;;9;13.4;;;;;;;1;77.8;99500;;;;
2022/01/28 21:28:08;;;;;;;8.6;12.5;;;;;;;1;79;99500;;;;
2022/01/28 21:38:08;;;;;;;8.6;12.5;;;;;;;0.9;78.3;99520;;;;
2022/01/28 21:48:08;;;;;;;8.6;12.5;;;;;;;0.8;78.3;99550;;;;
2022/01/28 21:58:08;;;;;;;14.9;18.7;;;;;;;0.7;79.2;99560;;;;
2022/01/28 22:08:08;;;;;;;14.9;18.7;;;;;;;0.7;78.9;99590;;;;
2022/01/28 22:18:08;;;;;;;14.9;18.7;;;;;;;0.7;78.8;99590;;;;
2022/01/28 22:28:08;;;;;;;11.8;14.1;;;;;;;0.6;79;99580;;;;
2022/01/28 22:39:08;;;;;;;11.8;14.1;;;;;;;0.6;79.2;99590;;;;
2022/01/28 22:49:09;;;;;;;11.8;14.1;;;;;;;0.6;79.5;99600;;;;
2022/01/28 23:00:08;;;;;;;13.4;19;;;;;;;0.7;78.4;99610;;;;
2022/01/28 23:10:08;;;;;;;13.4;19;;;;;;;0.7;77.8;99620;;;;
2022/01/28 23:20:09;;;;;;;13.4;19;;;;;;;0.8;77.5;99620;;;;
2022/01/28 23:31:08;;;;;;;14.6;18.5;;;;;;;0.9;77.6;99630;;;;
2022/01/28 23:41:10;;;;;;;14.6;18.5;;;;;;;0.8;77.3;99630;;;;
2022/01/28 23:51:08;;;;;;;13.3;19.8;;;;;;;0.9;76.7;99640;;;;
